sensor_id;sensor_type;location;lat;lon;timestamp;temperature;humidity
5846;DHT22;2949;50.778;7.094;2022-11-25T00:00:51;5.40;99.90
5846;DHT22;2949;50.778;7.094;2022-11-25T00:03:17;5.40;99.90
5846;DHT22;2949;50.778;7.094;2022-11-25T00:05:43;5.30;99.90
5846;DHT22;2949;50.778;7.094;2022-11-25T00:08:08;5.20;99.90
5846;DHT22;2949;50.778;7.094;2022-11-25T00:10:34;5.10;99.90
5846;DHT22;2949;50.778;7.094;2022-11-25T00:12:59;5.20;99.90
5846;DHT22;2949;50.778;7.094;2022-11-25T00:15:25;5.40;99.90
5846;DHT22;2949;50.778;7.094;2022-11-25T00:17:51;5.60;99.90
5846;DHT22;2949;50.778;7.094;2022-11-25T00:20:17;5.70;99.90
5846;DHT22;2949;50.778;7.094;2022-11-25T00:22:44;5.80;99.90
5846;DHT22;2949;50.778;7.094;2022-11-25T00:25:10;5.80;99.90
5846;DHT22;2949;50.778;7.094;2022-11-25T00:27:36;5.80;99.90
5846;DHT22;2949;50.778;7.094;2022-11-25T00:30:01;5.70;99.90
5846;DHT22;2949;50.778;7.094;2022-11-25T00:32:27;5.70;99.90
5846;DHT22;2949;50.778;7.094;2022-11-25T00:34:52;5.70;99.90
5846;DHT22;2949;50.778;7.094;2022-11-25T00:37:18;5.80;99.90
5846;DHT22;2949;50.778;7.094;2022-11-25T00:39:43;5.80;99.90
5846;DHT22;2949;50.778;7.094;2022-11-25T00:42:09;5.80;99.90
5846;DHT22;2949;50.778;7.094;2022-11-25T00:44:53;6.00;99.90
5846;DHT22;2949;50.778;7.094;2022-11-25T00:47:20;6.10;99.90
5846;DHT22;2949;50.778;7.094;2022-11-25T00:49:51;6.20;99.90
5846;DHT22;2949;50.778;7.094;2022-11-25T00:52:20;6.40;99.90
5846;DHT22;2949;50.778;7.094;2022-11-25T00:54:47;6.60;99.90
5846;DHT22;2949;50.778;7.094;2022-11-25T00:57:14;6.80;99.90
5846;DHT22;2949;50.778;7.094;2022-11-25T00:59:40;6.80;99.90
5846;DHT22;2949;50.778;7.094;2022-11-25T01:02:06;6.90;99.90
5846;DHT22;2949;50.778;7.094;2022-11-25T01:04:32;6.90;99.90
5846;DHT22;2949;50.778;7.094;2022-11-25T01:06:58;6.80;99.90
5846;DHT22;2949;50.778;7.094;2022-11-25T01:09:24;6.70;99.90
5846;DHT22;2949;50.778;7.094;2022-11-25T01:11:50;6.50;99.90
5846;DHT22;2949;50.778;7.094;2022-11-25T01:14:17;6.40;99.90
5846;DHT22;2949;50.778;7.094;2022-11-25T01:16:43;6.30;99.90
5846;DHT22;2949;50.778;7.094;2022-11-25T01:19:09;6.10;99.90
5846;DHT22;2949;50.778;7.094;2022-11-25T01:21:35;6.10;99.90
5846;DHT22;2949;50.778;7.094;2022-11-25T01:24:03;6.00;99.90
5846;DHT22;2949;50.778;7.094;2022-11-25T01:26:29;6.10;99.90
5846;DHT22;2949;50.778;7.094;2022-11-25T01:28:58;6.10;99.90
5846;DHT22;2949;50.778;7.094;2022-11-25T01:31:27;6.20;99.90
5846;DHT22;2949;50.778;7.094;2022-11-25T01:33:55;6.20;99.90
5846;DHT22;2949;50.778;7.094;2022-11-25T01:36:22;6.40;99.90
5846;DHT22;2949;50.778;7.094;2022-11-25T01:38:53;6.50;99.90
5846;DHT22;2949;50.778;7.094;2022-11-25T01:41:20;6.70;99.90
5846;DHT22;2949;50.778;7.094;2022-11-25T01:44:07;6.80;99.90
5846;DHT22;2949;50.778;7.094;2022-11-25T01:49:27;7.10;99.90
5846;DHT22;2949;50.778;7.094;2022-11-25T01:52:07;7.20;99.90
5846;DHT22;2949;50.778;7.094;2022-11-25T01:54:39;7.30;99.90
5846;DHT22;2949;50.778;7.094;2022-11-25T01:57:14;7.30;99.90
5846;DHT22;2949;50.778;7.094;2022-11-25T01:59:45;7.40;99.90
5846;DHT22;2949;50.778;7.094;2022-11-25T02:02:13;7.40;99.90
5846;DHT22;2949;50.778;7.094;2022-11-25T02:04:40;7.50;99.90
5846;DHT22;2949;50.778;7.094;2022-11-25T02:07:18;7.50;99.90
5846;DHT22;2949;50.778;7.094;2022-11-25T02:09:45;7.50;99.90
5846;DHT22;2949;50.778;7.094;2022-11-25T02:12:11;7.60;99.90
5846;DHT22;2949;50.778;7.094;2022-11-25T02:14:38;7.70;99.90
5846;DHT22;2949;50.778;7.094;2022-11-25T02:17:04;7.80;99.90
5846;DHT22;2949;50.778;7.094;2022-11-25T02:19:38;7.80;99.90
5846;DHT22;2949;50.778;7.094;2022-11-25T02:22:10;7.90;99.90
5846;DHT22;2949;50.778;7.094;2022-11-25T02:24:44;8.00;99.90
5846;DHT22;2949;50.778;7.094;2022-11-25T02:27:11;8.10;99.90
5846;DHT22;2949;50.778;7.094;2022-11-25T02:29:37;8.10;99.90
5846;DHT22;2949;50.778;7.094;2022-11-25T02:32:04;8.20;99.90
5846;DHT22;2949;50.778;7.094;2022-11-25T02:34:29;8.20;99.90
5846;DHT22;2949;50.778;7.094;2022-11-25T02:36:55;8.20;99.90
5846;DHT22;2949;50.778;7.094;2022-11-25T02:39:21;8.30;99.90
5846;DHT22;2949;50.778;7.094;2022-11-25T02:41:50;8.30;99.90
5846;DHT22;2949;50.778;7.094;2022-11-25T02:44:17;8.40;99.90
5846;DHT22;2949;50.778;7.094;2022-11-25T02:46:42;8.40;99.90
5846;DHT22;2949;50.778;7.094;2022-11-25T02:49:08;8.40;99.90
5846;DHT22;2949;50.778;7.094;2022-11-25T02:51:34;8.40;99.90
5846;DHT22;2949;50.778;7.094;2022-11-25T02:54:00;8.40;99.90
5846;DHT22;2949;50.778;7.094;2022-11-25T02:56:31;8.30;99.90
5846;DHT22;2949;50.778;7.094;2022-11-25T02:58:57;8.30;99.90
5846;DHT22;2949;50.778;7.094;2022-11-25T03:01:23;8.20;99.90
5846;DHT22;2949;50.778;7.094;2022-11-25T03:03:48;8.10;99.90
5846;DHT22;2949;50.778;7.094;2022-11-25T03:06:14;8.10;99.90
5846;DHT22;2949;50.778;7.094;2022-11-25T03:08:40;8.10;99.90
5846;DHT22;2949;50.778;7.094;2022-11-25T03:11:06;8.10;99.90
5846;DHT22;2949;50.778;7.094;2022-11-25T03:13:31;8.00;99.90
5846;DHT22;2949;50.778;7.094;2022-11-25T03:15:57;8.00;99.90
5846;DHT22;2949;50.778;7.094;2022-11-25T03:18:23;8.00;99.90
5846;DHT22;2949;50.778;7.094;2022-11-25T03:20:52;8.00;99.90
5846;DHT22;2949;50.778;7.094;2022-11-25T03:23:18;7.90;99.90
5846;DHT22;2949;50.778;7.094;2022-11-25T03:25:44;8.00;99.90
5846;DHT22;2949;50.778;7.094;2022-11-25T03:28:09;8.10;99.90
5846;DHT22;2949;50.778;7.094;2022-11-25T03:30:35;8.10;99.90
5846;DHT22;2949;50.778;7.094;2022-11-25T03:33:00;8.20;99.90
5846;DHT22;2949;50.778;7.094;2022-11-25T03:35:26;8.20;99.90
5846;DHT22;2949;50.778;7.094;2022-11-25T03:37:51;8.30;99.90
5846;DHT22;2949;50.778;7.094;2022-11-25T03:40:17;8.30;99.90
5846;DHT22;2949;50.778;7.094;2022-11-25T03:42:43;8.30;99.90
5846;DHT22;2949;50.778;7.094;2022-11-25T03:45:10;8.30;99.90
5846;DHT22;2949;50.778;7.094;2022-11-25T03:47:38;8.30;99.90
5846;DHT22;2949;50.778;7.094;2022-11-25T03:50:05;8.20;99.90
5846;DHT22;2949;50.778;7.094;2022-11-25T03:52:31;8.30;99.90
5846;DHT22;2949;50.778;7.094;2022-11-25T03:54:56;8.30;99.90
5846;DHT22;2949;50.778;7.094;2022-11-25T03:57:22;8.30;99.90
5846;DHT22;2949;50.778;7.094;2022-11-25T03:59:47;8.20;99.90
5846;DHT22;2949;50.778;7.094;2022-11-25T04:02:13;8.20;99.90
5846;DHT22;2949;50.778;7.094;2022-11-25T04:04:39;8.20;99.90
5846;DHT22;2949;50.778;7.094;2022-11-25T04:07:05;8.10;99.90
5846;DHT22;2949;50.778;7.094;2022-11-25T04:09:30;8.20;99.90
5846;DHT22;2949;50.778;7.094;2022-11-25T04:11:56;8.20;99.90
5846;DHT22;2949;50.778;7.094;2022-11-25T04:14:39;8.20;99.90
5846;DHT22;2949;50.778;7.094;2022-11-25T04:17:05;8.20;99.90
5846;DHT22;2949;50.778;7.094;2022-11-25T04:19:31;8.20;99.90
5846;DHT22;2949;50.778;7.094;2022-11-25T04:21:56;8.20;99.90
5846;DHT22;2949;50.778;7.094;2022-11-25T04:24:26;8.20;99.90
5846;DHT22;2949;50.778;7.094;2022-11-25T04:26:51;8.10;99.90
5846;DHT22;2949;50.778;7.094;2022-11-25T04:29:17;8.10;99.90
5846;DHT22;2949;50.778;7.094;2022-11-25T04:31:42;8.00;99.90
5846;DHT22;2949;50.778;7.094;2022-11-25T04:34:08;8.10;99.90
5846;DHT22;2949;50.778;7.094;2022-11-25T04:36:33;8.10;99.90
5846;DHT22;2949;50.778;7.094;2022-11-25T04:38:59;8.20;99.90
5846;DHT22;2949;50.778;7.094;2022-11-25T04:41:24;8.20;99.90
5846;DHT22;2949;50.778;7.094;2022-11-25T04:43:50;8.20;99.90
5846;DHT22;2949;50.778;7.094;2022-11-25T04:46:16;8.10;99.90
5846;DHT22;2949;50.778;7.094;2022-11-25T04:48:43;8.10;99.90
5846;DHT22;2949;50.778;7.094;2022-11-25T04:51:09;8.00;99.90
5846;DHT22;2949;50.778;7.094;2022-11-25T04:53:34;8.00;99.90
5846;DHT22;2949;50.778;7.094;2022-11-25T04:56:00;7.90;99.90
5846;DHT22;2949;50.778;7.094;2022-11-25T04:58:25;7.90;99.90
5846;DHT22;2949;50.778;7.094;2022-11-25T05:01:09;7.90;99.90
5846;DHT22;2949;50.778;7.094;2022-11-25T05:03:35;7.80;99.90
5846;DHT22;2949;50.778;7.094;2022-11-25T05:06:08;7.80;99.90
5846;DHT22;2949;50.778;7.094;2022-11-25T05:08:34;7.70;99.90
5846;DHT22;2949;50.778;7.094;2022-11-25T05:10:59;7.70;99.90
5846;DHT22;2949;50.778;7.094;2022-11-25T05:13:25;7.70;99.90
5846;DHT22;2949;50.778;7.094;2022-11-25T05:15:51;7.60;99.90
5846;DHT22;2949;50.778;7.094;2022-11-25T05:18:16;7.60;99.90
5846;DHT22;2949;50.778;7.094;2022-11-25T05:20:42;7.60;99.90
5846;DHT22;2949;50.778;7.094;2022-11-25T05:23:08;7.60;99.90
5846;DHT22;2949;50.778;7.094;2022-11-25T05:25:34;7.60;99.90
5846;DHT22;2949;50.778;7.094;2022-11-25T05:28:00;7.60;99.90
5846;DHT22;2949;50.778;7.094;2022-11-25T05:30:25;7.60;99.90
5846;DHT22;2949;50.778;7.094;2022-11-25T05:32:51;7.60;99.90
5846;DHT22;2949;50.778;7.094;2022-11-25T05:35:16;7.50;99.90
5846;DHT22;2949;50.778;7.094;2022-11-25T05:37:43;7.50;99.90
5846;DHT22;2949;50.778;7.094;2022-11-25T05:40:09;7.50;99.90
5846;DHT22;2949;50.778;7.094;2022-11-25T05:42:35;7.50;99.90
5846;DHT22;2949;50.778;7.094;2022-11-25T05:45:00;7.50;99.90
5846;DHT22;2949;50.778;7.094;2022-11-25T05:47:26;7.50;99.90
5846;DHT22;2949;50.778;7.094;2022-11-25T05:49:52;7.40;99.90
5846;DHT22;2949;50.778;7.094;2022-11-25T05:52:17;7.40;99.90
5846;DHT22;2949;50.778;7.094;2022-11-25T05:54:43;7.50;99.90
5846;DHT22;2949;50.778;7.094;2022-11-25T05:57:08;7.50;99.90
5846;DHT22;2949;50.778;7.094;2022-11-25T05:59:34;7.50;99.90
5846;DHT22;2949;50.778;7.094;2022-11-25T06:01:59;7.50;99.90
5846;DHT22;2949;50.778;7.094;2022-11-25T06:04:25;7.50;99.90
5846;DHT22;2949;50.778;7.094;2022-11-25T06:06:51;7.50;99.90
5846;DHT22;2949;50.778;7.094;2022-11-25T06:09:16;7.40;99.90
5846;DHT22;2949;50.778;7.094;2022-11-25T06:11:42;7.40;99.90
5846;DHT22;2949;50.778;7.094;2022-11-25T06:14:08;7.40;99.90
5846;DHT22;2949;50.778;7.094;2022-11-25T06:16:34;7.40;99.90
5846;DHT22;2949;50.778;7.094;2022-11-25T06:19:01;7.40;99.90
5846;DHT22;2949;50.778;7.094;2022-11-25T06:21:30;7.40;99.90
5846;DHT22;2949;50.778;7.094;2022-11-25T06:23:55;7.50;99.90
5846;DHT22;2949;50.778;7.094;2022-11-25T06:26:21;7.50;99.90
5846;DHT22;2949;50.778;7.094;2022-11-25T06:28:48;7.50;99.90
5846;DHT22;2949;50.778;7.094;2022-11-25T06:31:19;7.50;99.90
5846;DHT22;2949;50.778;7.094;2022-11-25T06:33:46;7.50;99.90
5846;DHT22;2949;50.778;7.094;2022-11-25T06:36:12;7.50;99.90
5846;DHT22;2949;50.778;7.094;2022-11-25T06:38:45;7.50;99.90
5846;DHT22;2949;50.778;7.094;2022-11-25T06:41:11;7.60;99.90
5846;DHT22;2949;50.778;7.094;2022-11-25T06:43:37;7.60;99.90
5846;DHT22;2949;50.778;7.094;2022-11-25T06:46:11;7.70;99.90
5846;DHT22;2949;50.778;7.094;2022-11-25T06:48:38;7.70;99.90
5846;DHT22;2949;50.778;7.094;2022-11-25T06:51:09;7.70;99.90
5846;DHT22;2949;50.778;7.094;2022-11-25T06:53:35;7.70;99.90
5846;DHT22;2949;50.778;7.094;2022-11-25T06:56:03;7.60;99.90
5846;DHT22;2949;50.778;7.094;2022-11-25T06:58:29;7.70;99.90
5846;DHT22;2949;50.778;7.094;2022-11-25T07:01:03;7.70;99.90
5846;DHT22;2949;50.778;7.094;2022-11-25T07:03:29;7.80;99.90
5846;DHT22;2949;50.778;7.094;2022-11-25T07:05:56;7.80;99.90
5846;DHT22;2949;50.778;7.094;2022-11-25T07:08:23;7.80;99.90
5846;DHT22;2949;50.778;7.094;2022-11-25T07:10:49;7.90;99.90
5846;DHT22;2949;50.778;7.094;2022-11-25T07:13:15;7.90;99.90
5846;DHT22;2949;50.778;7.094;2022-11-25T07:15:40;7.90;99.90
5846;DHT22;2949;50.778;7.094;2022-11-25T07:18:06;7.80;99.90
5846;DHT22;2949;50.778;7.094;2022-11-25T07:20:31;7.80;99.90
5846;DHT22;2949;50.778;7.094;2022-11-25T07:22:57;7.80;99.90
5846;DHT22;2949;50.778;7.094;2022-11-25T07:25:22;7.80;99.90
5846;DHT22;2949;50.778;7.094;2022-11-25T07:27:48;7.70;99.90
5846;DHT22;2949;50.778;7.094;2022-11-25T07:30:14;7.60;99.90
5846;DHT22;2949;50.778;7.094;2022-11-25T07:32:40;7.50;99.90
5846;DHT22;2949;50.778;7.094;2022-11-25T07:35:05;7.50;99.90
5846;DHT22;2949;50.778;7.094;2022-11-25T07:37:31;7.40;99.90
5846;DHT22;2949;50.778;7.094;2022-11-25T07:39:57;7.40;99.90
5846;DHT22;2949;50.778;7.094;2022-11-25T07:42:22;7.40;99.90
5846;DHT22;2949;50.778;7.094;2022-11-25T07:44:48;7.30;99.90
5846;DHT22;2949;50.778;7.094;2022-11-25T07:47:13;7.40;99.90
5846;DHT22;2949;50.778;7.094;2022-11-25T07:49:39;7.30;99.90
5846;DHT22;2949;50.778;7.094;2022-11-25T07:52:04;7.20;99.90
5846;DHT22;2949;50.778;7.094;2022-11-25T07:54:30;7.10;99.90
5846;DHT22;2949;50.778;7.094;2022-11-25T07:56:57;7.10;99.90
5846;DHT22;2949;50.778;7.094;2022-11-25T07:59:23;7.10;99.90
5846;DHT22;2949;50.778;7.094;2022-11-25T08:01:50;7.20;99.90
5846;DHT22;2949;50.778;7.094;2022-11-25T08:04:16;7.40;99.90
5846;DHT22;2949;50.778;7.094;2022-11-25T08:06:43;7.60;99.90
5846;DHT22;2949;50.778;7.094;2022-11-25T08:09:10;7.90;99.90
5846;DHT22;2949;50.778;7.094;2022-11-25T08:11:37;8.20;99.90
5846;DHT22;2949;50.778;7.094;2022-11-25T08:14:03;8.50;99.90
5846;DHT22;2949;50.778;7.094;2022-11-25T08:16:29;8.60;99.90
5846;DHT22;2949;50.778;7.094;2022-11-25T08:18:59;8.60;99.90
5846;DHT22;2949;50.778;7.094;2022-11-25T08:21:25;8.60;99.90
5846;DHT22;2949;50.778;7.094;2022-11-25T08:23:51;8.60;99.90
5846;DHT22;2949;50.778;7.094;2022-11-25T08:26:31;8.70;99.90
5846;DHT22;2949;50.778;7.094;2022-11-25T08:29:00;8.90;99.90
5846;DHT22;2949;50.778;7.094;2022-11-25T08:31:28;9.40;99.90
5846;DHT22;2949;50.778;7.094;2022-11-25T08:33:55;10.50;99.90
5846;DHT22;2949;50.778;7.094;2022-11-25T08:36:21;10.80;99.90
5846;DHT22;2949;50.778;7.094;2022-11-25T08:38:48;11.90;99.90
5846;DHT22;2949;50.778;7.094;2022-11-25T08:41:20;12.90;99.90
5846;DHT22;2949;50.778;7.094;2022-11-25T08:43:46;13.10;99.90
5846;DHT22;2949;50.778;7.094;2022-11-25T08:46:15;13.00;99.90
5846;DHT22;2949;50.778;7.094;2022-11-25T08:48:41;14.20;99.90
5846;DHT22;2949;50.778;7.094;2022-11-25T08:51:11;15.60;99.90
5846;DHT22;2949;50.778;7.094;2022-11-25T08:53:37;16.90;99.90
5846;DHT22;2949;50.778;7.094;2022-11-25T08:56:04;17.80;99.90
5846;DHT22;2949;50.778;7.094;2022-11-25T08:58:30;18.60;99.90
5846;DHT22;2949;50.778;7.094;2022-11-25T09:00:56;19.10;99.90
5846;DHT22;2949;50.778;7.094;2022-11-25T09:03:21;19.40;99.90
5846;DHT22;2949;50.778;7.094;2022-11-25T09:05:47;19.60;99.90
5846;DHT22;2949;50.778;7.094;2022-11-25T09:08:13;19.80;99.90
5846;DHT22;2949;50.778;7.094;2022-11-25T09:10:39;20.10;99.90
5846;DHT22;2949;50.778;7.094;2022-11-25T09:13:05;20.00;99.90
5846;DHT22;2949;50.778;7.094;2022-11-25T09:15:31;20.00;99.90
5846;DHT22;2949;50.778;7.094;2022-11-25T09:18:02;20.30;99.90
5846;DHT22;2949;50.778;7.094;2022-11-25T09:20:28;20.60;99.90
5846;DHT22;2949;50.778;7.094;2022-11-25T09:22:54;20.60;99.90
5846;DHT22;2949;50.778;7.094;2022-11-25T09:25:20;20.50;99.90
5846;DHT22;2949;50.778;7.094;2022-11-25T09:27:46;20.50;99.90
5846;DHT22;2949;50.778;7.094;2022-11-25T09:30:12;20.90;99.90
5846;DHT22;2949;50.778;7.094;2022-11-25T09:32:38;21.20;99.90
5846;DHT22;2949;50.778;7.094;2022-11-25T09:35:04;21.40;99.90
5846;DHT22;2949;50.778;7.094;2022-11-25T09:37:29;21.50;99.90
5846;DHT22;2949;50.778;7.094;2022-11-25T09:39:55;21.70;99.90
5846;DHT22;2949;50.778;7.094;2022-11-25T09:42:46;22.10;97.70
5846;DHT22;2949;50.778;7.094;2022-11-25T09:46:02;22.00;95.50
5846;DHT22;2949;50.778;7.094;2022-11-25T09:48:58;21.80;97.20
5846;DHT22;2949;50.778;7.094;2022-11-25T09:57:24;22.10;96.80
5846;DHT22;2949;50.778;7.094;2022-11-25T10:00:16;22.40;96.30
5846;DHT22;2949;50.778;7.094;2022-11-25T10:03:32;22.60;95.10
5846;DHT22;2949;50.778;7.094;2022-11-25T10:06:05;22.70;93.60
5846;DHT22;2949;50.778;7.094;2022-11-25T10:08:39;22.70;94.30
5846;DHT22;2949;50.778;7.094;2022-11-25T10:22:32;22.90;92.20
5846;DHT22;2949;50.778;7.094;2022-11-25T10:25:11;22.60;90.50
5846;DHT22;2949;50.778;7.094;2022-11-25T10:27:56;22.30;91.80
5846;DHT22;2949;50.778;7.094;2022-11-25T10:30:34;22.60;90.50
5846;DHT22;2949;50.778;7.094;2022-11-25T10:33:17;22.40;90.20
5846;DHT22;2949;50.778;7.094;2022-11-25T10:35:52;22.20;89.20
5846;DHT22;2949;50.778;7.094;2022-11-25T10:38:32;21.90;90.50
5846;DHT22;2949;50.778;7.094;2022-11-25T10:41:02;21.20;91.70
5846;DHT22;2949;50.778;7.094;2022-11-25T10:43:29;21.10;92.20
5846;DHT22;2949;50.778;7.094;2022-11-25T10:46:09;20.70;91.70
5846;DHT22;2949;50.778;7.094;2022-11-25T10:48:59;20.30;93.30
5846;DHT22;2949;50.778;7.094;2022-11-25T10:56:58;19.60;94.60
5846;DHT22;2949;50.778;7.094;2022-11-25T10:59:35;19.50;93.90
5846;DHT22;2949;50.778;7.094;2022-11-25T11:02:22;18.40;96.60
5846;DHT22;2949;50.778;7.094;2022-11-25T11:04:57;16.80;99.90
5846;DHT22;2949;50.778;7.094;2022-11-25T11:07:30;15.70;99.90
5846;DHT22;2949;50.778;7.094;2022-11-25T11:10:21;15.20;99.90
5846;DHT22;2949;50.778;7.094;2022-11-25T11:15:26;14.60;99.90
5846;DHT22;2949;50.778;7.094;2022-11-25T11:17:58;14.50;99.90
5846;DHT22;2949;50.778;7.094;2022-11-25T11:20:30;14.30;99.90
5846;DHT22;2949;50.778;7.094;2022-11-25T11:23:11;14.10;99.90
5846;DHT22;2949;50.778;7.094;2022-11-25T11:25:40;13.70;99.90
5846;DHT22;2949;50.778;7.094;2022-11-25T11:31:03;13.50;99.90
5846;DHT22;2949;50.778;7.094;2022-11-25T11:42:09;13.60;99.90
5846;DHT22;2949;50.778;7.094;2022-11-25T11:50:42;13.40;99.90
5846;DHT22;2949;50.778;7.094;2022-11-25T11:58:46;13.50;99.90
5846;DHT22;2949;50.778;7.094;2022-11-25T12:04:02;13.30;99.90
5846;DHT22;2949;50.778;7.094;2022-11-25T12:06:33;13.10;99.90
5846;DHT22;2949;50.778;7.094;2022-11-25T12:09:09;12.90;99.90
5846;DHT22;2949;50.778;7.094;2022-11-25T12:11:44;12.70;99.90
5846;DHT22;2949;50.778;7.094;2022-11-25T12:14:41;12.60;99.90
5846;DHT22;2949;50.778;7.094;2022-11-25T12:22:39;12.50;99.90
5846;DHT22;2949;50.778;7.094;2022-11-25T12:25:17;12.40;99.90
5846;DHT22;2949;50.778;7.094;2022-11-25T12:27:49;12.30;99.90
5846;DHT22;2949;50.778;7.094;2022-11-25T12:30:19;12.20;99.90
5846;DHT22;2949;50.778;7.094;2022-11-25T12:35:35;12.10;99.90
5846;DHT22;2949;50.778;7.094;2022-11-25T12:41:08;12.50;99.90
5846;DHT22;2949;50.778;7.094;2022-11-25T12:46:47;12.70;99.90
5846;DHT22;2949;50.778;7.094;2022-11-25T12:49:20;12.70;99.90
5846;DHT22;2949;50.778;7.094;2022-11-25T13:03:22;12.80;99.90
5846;DHT22;2949;50.778;7.094;2022-11-25T13:05:58;13.00;99.90
5846;DHT22;2949;50.778;7.094;2022-11-25T13:08:37;13.10;99.90
5846;DHT22;2949;50.778;7.094;2022-11-25T13:16:55;13.30;99.90
5846;DHT22;2949;50.778;7.094;2022-11-25T13:19:21;13.20;99.90
5846;DHT22;2949;50.778;7.094;2022-11-25T13:21:59;13.00;99.90
5846;DHT22;2949;50.778;7.094;2022-11-25T13:24:38;12.70;99.90
5846;DHT22;2949;50.778;7.094;2022-11-25T13:27:04;12.50;99.90
5846;DHT22;2949;50.778;7.094;2022-11-25T13:31:59;12.30;99.90
5846;DHT22;2949;50.778;7.094;2022-11-25T13:34:32;12.30;99.90
5846;DHT22;2949;50.778;7.094;2022-11-25T13:37:00;12.30;99.90
5846;DHT22;2949;50.778;7.094;2022-11-25T13:39:34;12.20;99.90
5846;DHT22;2949;50.778;7.094;2022-11-25T13:42:01;12.20;99.90
5846;DHT22;2949;50.778;7.094;2022-11-25T13:44:32;12.00;99.90
5846;DHT22;2949;50.778;7.094;2022-11-25T13:47:32;11.90;99.90
5846;DHT22;2949;50.778;7.094;2022-11-25T13:52:35;11.60;99.90
5846;DHT22;2949;50.778;7.094;2022-11-25T13:55:23;11.50;99.90
5846;DHT22;2949;50.778;7.094;2022-11-25T13:58:43;11.40;99.90
5846;DHT22;2949;50.778;7.094;2022-11-25T14:00:59;11.40;99.90
5846;DHT22;2949;50.778;7.094;2022-11-25T14:06:02;11.30;99.90
5846;DHT22;2949;50.778;7.094;2022-11-25T14:16:53;11.20;99.90
5846;DHT22;2949;50.778;7.094;2022-11-25T14:25:23;11.10;99.90
5846;DHT22;2949;50.778;7.094;2022-11-25T14:27:33;11.00;99.90
5846;DHT22;2949;50.778;7.094;2022-11-25T14:30:04;11.00;99.90
5846;DHT22;2949;50.778;7.094;2022-11-25T14:32:52;11.00;99.90
5846;DHT22;2949;50.778;7.094;2022-11-25T14:38:02;10.80;99.90
5846;DHT22;2949;50.778;7.094;2022-11-25T14:40:41;10.80;99.90
5846;DHT22;2949;50.778;7.094;2022-11-25T14:43:14;10.70;99.90
5846;DHT22;2949;50.778;7.094;2022-11-25T14:45:40;10.70;99.90
5846;DHT22;2949;50.778;7.094;2022-11-25T14:48:17;10.70;99.90
5846;DHT22;2949;50.778;7.094;2022-11-25T14:50:54;10.70;99.90
5846;DHT22;2949;50.778;7.094;2022-11-25T14:53:20;10.70;99.90
5846;DHT22;2949;50.778;7.094;2022-11-25T14:55:47;10.70;99.90
5846;DHT22;2949;50.778;7.094;2022-11-25T14:58:13;10.70;99.90
5846;DHT22;2949;50.778;7.094;2022-11-25T15:03:23;10.60;99.90
5846;DHT22;2949;50.778;7.094;2022-11-25T15:05:54;10.50;99.90
5846;DHT22;2949;50.778;7.094;2022-11-25T15:08:21;10.40;99.90
5846;DHT22;2949;50.778;7.094;2022-11-25T15:10:55;10.20;99.90
5846;DHT22;2949;50.778;7.094;2022-11-25T15:13:32;10.10;99.90
5846;DHT22;2949;50.778;7.094;2022-11-25T15:16:16;9.90;99.90
5846;DHT22;2949;50.778;7.094;2022-11-25T15:18:55;9.70;99.90
5846;DHT22;2949;50.778;7.094;2022-11-25T15:21:26;9.50;99.90
5846;DHT22;2949;50.778;7.094;2022-11-25T15:23:53;9.30;99.90
5846;DHT22;2949;50.778;7.094;2022-11-25T15:26:20;9.10;99.90
5846;DHT22;2949;50.778;7.094;2022-11-25T15:28:56;8.90;99.90
5846;DHT22;2949;50.778;7.094;2022-11-25T15:31:28;8.80;99.90
5846;DHT22;2949;50.778;7.094;2022-11-25T15:33:58;8.70;99.90
5846;DHT22;2949;50.778;7.094;2022-11-25T15:36:25;8.70;99.90
5846;DHT22;2949;50.778;7.094;2022-11-25T15:38:52;8.70;99.90
5846;DHT22;2949;50.778;7.094;2022-11-25T15:43:50;8.80;99.90
5846;DHT22;2949;50.778;7.094;2022-11-25T15:46:17;8.90;99.90
5846;DHT22;2949;50.778;7.094;2022-11-25T15:48:47;9.00;99.90
5846;DHT22;2949;50.778;7.094;2022-11-25T15:51:49;9.20;99.90
5846;DHT22;2949;50.778;7.094;2022-11-25T15:54:19;9.20;99.90
5846;DHT22;2949;50.778;7.094;2022-11-25T15:56:48;9.30;99.90
5846;DHT22;2949;50.778;7.094;2022-11-25T16:00:19;9.40;99.90
5846;DHT22;2949;50.778;7.094;2022-11-25T16:02:47;9.40;99.90
5846;DHT22;2949;50.778;7.094;2022-11-25T16:10:31;9.50;99.90
5846;DHT22;2949;50.778;7.094;2022-11-25T16:13:16;9.50;99.90
5846;DHT22;2949;50.778;7.094;2022-11-25T16:18:15;9.40;99.90
5846;DHT22;2949;50.778;7.094;2022-11-25T16:20:49;9.30;99.90
5846;DHT22;2949;50.778;7.094;2022-11-25T16:23:17;9.30;99.90
5846;DHT22;2949;50.778;7.094;2022-11-25T16:28:38;9.40;99.90
5846;DHT22;2949;50.778;7.094;2022-11-25T16:31:05;9.40;99.90
5846;DHT22;2949;50.778;7.094;2022-11-25T16:33:30;9.40;99.90
5846;DHT22;2949;50.778;7.094;2022-11-25T16:35:56;9.40;99.90
5846;DHT22;2949;50.778;7.094;2022-11-25T16:38:21;9.50;99.90
5846;DHT22;2949;50.778;7.094;2022-11-25T16:40:49;9.50;99.90
5846;DHT22;2949;50.778;7.094;2022-11-25T16:43:20;9.50;99.90
5846;DHT22;2949;50.778;7.094;2022-11-25T16:45:51;9.50;99.90
5846;DHT22;2949;50.778;7.094;2022-11-25T16:48:22;9.50;99.90
5846;DHT22;2949;50.778;7.094;2022-11-25T16:50:48;9.50;99.90
5846;DHT22;2949;50.778;7.094;2022-11-25T16:53:14;9.40;99.90
5846;DHT22;2949;50.778;7.094;2022-11-25T16:55:41;9.40;99.90
5846;DHT22;2949;50.778;7.094;2022-11-25T16:58:31;9.40;99.90
5846;DHT22;2949;50.778;7.094;2022-11-25T17:00:56;9.40;99.90
5846;DHT22;2949;50.778;7.094;2022-11-25T17:03:22;9.40;99.90
5846;DHT22;2949;50.778;7.094;2022-11-25T17:05:51;9.40;99.90
5846;DHT22;2949;50.778;7.094;2022-11-25T17:08:17;9.40;99.90
5846;DHT22;2949;50.778;7.094;2022-11-25T17:10:43;9.30;99.90
5846;DHT22;2949;50.778;7.094;2022-11-25T17:13:19;9.30;99.90
5846;DHT22;2949;50.778;7.094;2022-11-25T17:15:47;9.20;99.90
5846;DHT22;2949;50.778;7.094;2022-11-25T17:18:15;9.10;99.90
5846;DHT22;2949;50.778;7.094;2022-11-25T17:23:15;9.00;99.90
5846;DHT22;2949;50.778;7.094;2022-11-25T17:25:45;9.00;99.90
5846;DHT22;2949;50.778;7.094;2022-11-25T17:28:16;9.10;99.90
5846;DHT22;2949;50.778;7.094;2022-11-25T17:30:43;9.10;99.90
5846;DHT22;2949;50.778;7.094;2022-11-25T17:33:17;9.10;99.90
5846;DHT22;2949;50.778;7.094;2022-11-25T17:35:44;9.00;99.90
5846;DHT22;2949;50.778;7.094;2022-11-25T17:38:12;9.00;99.90
5846;DHT22;2949;50.778;7.094;2022-11-25T17:40:39;8.90;99.90
5846;DHT22;2949;50.778;7.094;2022-11-25T17:43:05;8.90;99.90
5846;DHT22;2949;50.778;7.094;2022-11-25T17:45:30;8.90;99.90
5846;DHT22;2949;50.778;7.094;2022-11-25T17:47:56;8.90;99.90
5846;DHT22;2949;50.778;7.094;2022-11-25T17:50:23;8.90;99.90
5846;DHT22;2949;50.778;7.094;2022-11-25T17:52:50;9.00;99.90
5846;DHT22;2949;50.778;7.094;2022-11-25T17:55:16;9.00;99.90
5846;DHT22;2949;50.778;7.094;2022-11-25T17:57:44;9.10;99.90
5846;DHT22;2949;50.778;7.094;2022-11-25T18:00:15;9.10;99.90
5846;DHT22;2949;50.778;7.094;2022-11-25T18:02:40;9.10;99.90
5846;DHT22;2949;50.778;7.094;2022-11-25T18:05:15;9.10;99.90
5846;DHT22;2949;50.778;7.094;2022-11-25T18:07:42;9.10;99.90
5846;DHT22;2949;50.778;7.094;2022-11-25T18:10:09;9.10;99.90
5846;DHT22;2949;50.778;7.094;2022-11-25T18:12:36;9.10;99.90
5846;DHT22;2949;50.778;7.094;2022-11-25T18:15:02;9.10;99.90
5846;DHT22;2949;50.778;7.094;2022-11-25T18:17:35;9.20;99.90
5846;DHT22;2949;50.778;7.094;2022-11-25T18:20:14;9.10;99.90
5846;DHT22;2949;50.778;7.094;2022-11-25T18:22:40;9.10;99.90
5846;DHT22;2949;50.778;7.094;2022-11-25T18:25:07;9.10;99.90
5846;DHT22;2949;50.778;7.094;2022-11-25T18:27:33;9.10;99.90
5846;DHT22;2949;50.778;7.094;2022-11-25T18:29:58;9.10;99.90
5846;DHT22;2949;50.778;7.094;2022-11-25T18:32:26;9.10;99.90
5846;DHT22;2949;50.778;7.094;2022-11-25T18:34:52;9.00;99.90